• Join FlightAware (Why Join?)
  • Login
  • US Flag 
09:42AM EST


 

Airport Tracker/Info


-or-


 

Live Flight TrackerFlight Track Log ✈ AAL963 ✈ 06-Jun-2013 ✈ KDFW - SBGR / GRU

Flight Track Log - Related Links

Times and Time Zones

All times are in EDT time to prevent confusion due to time zone crossing. See the AAL963 flight status page for this flight to view local times or setup timezone preferences in your user account.

Time Position Orientation Groundspeed Altitude Reporting Facility
EDT Latitude Longitude Course Direction KTS MPH feet Rate Location/Type
10:03PM 32.9500 -97.0260 10° North 199 229 2,300  Level FlightAware
10:04PM 32.9740 -97.0200 12° North 226 260 2,700 1,440 Climbing FlightAware
10:04PM 33.0050 -97.0140 North 241 277 3,600 2,100 Climbing FlightAware
10:04PM 33.0230 -97.0100 11° North 241 277 4,300 2,280 Climbing FlightAware
10:05PM 33.0440 -96.9870 43° Northeast 254 292 5,200 1,800 Climbing FlightAware
10:05PM 33.0480 -96.9730 71° East 264 304 5,400 1,920 Climbing FlightAware
10:06PM 33.0360 -96.9300 108° East 286 329 6,500 1,800 Climbing FlightAware
10:06PM 33.0150 -96.9110 143° Southeast 305 351 6,900 1,740 Climbing FlightAware
10:06PM 32.9990 -96.9050 163° South 306 352 7,400 2,400 Climbing FlightAware
10:07PM 32.9590 -96.9040 179° South 302 348 8,500 2,460 Climbing FlightAware
10:07PM 32.9210 -96.9010 176° South 299 344 9,700 1,860 Climbing FlightAware
10:08PM 32.8610 -96.8940 174° South 325 374 10,700 1,200 Climbing FlightAware
10:08PM 32.7970 -96.8850 173° South 361 415 11,400 1,080 Climbing FlightAware
10:09PM 32.7230 -96.8750 174° South 390 449 12,200 1,140 Climbing FlightAware
10:10PM 32.6460 -96.8650 174° South 416 479 13,000 1,560 Climbing FlightAware
10:11PM 32.5640 -96.8530 173° South 426 490 14,400 1,920 Climbing FlightAware
10:11PM 32.4920 -96.8440 174° South 435 501 15,500 1,860 Climbing FlightAware
10:12PM 32.4090 -96.8320 173° South 441 507 16,800 1,860 Climbing FlightAware
10:12PM 32.3606 -96.8258 174° South 445 512 17,500 1,860 Climbing FlightAware ADS-B
10:13PM 32.3094 -96.8182 173° South 451 519 18,300 1,860 Climbing FlightAware ADS-B
10:13PM 32.2360 -96.7973 166° South 454 522 19,400 1,740 Climbing FlightAware ADS-B
10:14PM 32.1500 -96.7650 162° South 467 537 20,600 1,680 Climbing FlightAware
10:14PM 32.1194 -96.7528 161° South 470 541 21,000 1,620 Climbing FlightAware ADS-B
10:15PM 32.0474 -96.7251 162° South 476 548 21,900 1,680 Climbing FlightAware ADS-B
10:15PM 31.9785 -96.6988 162° South 480 552 22,900 1,560 Climbing FlightAware ADS-B
10:16PM 31.9137 -96.6743 162° South 486 559 23,600 1,620 Climbing FlightAware ADS-B
10:16PM 31.8458 -96.6482 162° South 483 556 24,600 1,500 Climbing FlightAware ADS-B
10:17PM 31.7805 -96.6210 161° South 490 564 25,200 1,200 Climbing FlightAware ADS-B
10:18PM 31.6468 -96.5659 161° South 496 571 26,500 1,260 Climbing FlightAware ADS-B
10:18PM 31.5777 -96.5378 161° South 498 573 27,200 1,200 Climbing FlightAware ADS-B
10:19PM 31.5123 -96.5112 161° South 499 574 27,800 1,080 Climbing FlightAware ADS-B
10:20PM 31.3770 -96.4607 163° South 504 580 28,900 960 Climbing FlightAware ADS-B
10:21PM 31.1703 -96.3840 162° South 508 585 30,400 1,200 Climbing FlightAware ADS-B
10:22PM 31.1023 -96.3589 162° South 498 573 31,400 1,740 Climbing FlightAware ADS-B
10:22PM 31.0368 -96.3352 163° South 489 563 32,200 1,380 Climbing FlightAware ADS-B
10:23PM 31.0105 -96.3269 165° South 487 560 32,400 840 Climbing FlightAware ADS-B
10:23PM 30.9788 -96.3185 167° South 487 560 32,600 660 Climbing FlightAware ADS-B
10:23PM 30.9547 -96.3095 162° South 491 565 32,700 600 Climbing FlightAware ADS-B
10:23PM 30.9373 -96.3008 157° South 494 568 32,800 600 Climbing FlightAware ADS-B
10:23PM 30.9156 -96.2868 151° Southeast 499 574 32,900 360 Climbing FlightAware ADS-B
10:24PM 30.8757 -96.2544 145° Southeast 501 577 33,000 120 Climbing FlightAware ADS-B
10:24PM 30.8316 -96.2103 138° Southeast 501 577 33,000  Level FlightAware ADS-B
10:26PM 30.6378 -95.9727 133° Southeast 499 574 33,000  Level FlightAware ADS-B
10:28PM 30.4931 -95.7961 134° Southeast 502 578 33,000  Level FlightAware ADS-B
10:29PM 30.3922 -95.6733 134° Southeast 504 580 33,000 60 Level FlightAware ADS-B
10:29PM 30.3414 -95.6117 134° Southeast 508 585 33,100 540 Climbing FlightAware ADS-B
10:30PM 30.2920 -95.5519 134° Southeast 508 585 33,600 960 Climbing FlightAware ADS-B
10:30PM 30.2430 -95.4925 134° Southeast 504 580 34,100 840 Climbing FlightAware ADS-B
10:31PM 30.1942 -95.4338 134° Southeast 503 579 34,500 780 Climbing FlightAware ADS-B
10:31PM 30.1449 -95.3742 134° Southeast 501 577 34,900 480 Climbing FlightAware ADS-B
10:32PM 30.0963 -95.3157 134° Southeast 498 573 35,000 60 Climbing FlightAware ADS-B
10:33PM 30.0004 -95.2003 134° Southeast 485 558 35,000  Level FlightAware ADS-B
10:33PM 29.9537 -95.1443 134° Southeast 484 557 35,000  Level FlightAware ADS-B
10:34PM 29.8602 -95.0327 134° Southeast 481 554 35,000  Level FlightAware ADS-B
10:35PM 29.8136 -94.9768 134° Southeast 480 552 35,000  Level FlightAware ADS-B
10:35PM 29.7674 -94.9218 134° Southeast 479 551 35,000  Level FlightAware ADS-B
10:36PM 29.7202 -94.8658 134° Southeast 479 551 35,000  Level FlightAware ADS-B
10:37PM 29.6253 -94.7530 134° Southeast 477 549 35,000  Level FlightAware ADS-B
10:37PM 29.5789 -94.6980 134° Southeast 474 545 35,000  Level FlightAware ADS-B
10:38PM 29.5330 -94.6437 134° Southeast 475 547 35,000  Level FlightAware ADS-B
10:38PM 29.4984 -94.6031 134° Southeast 479 551 35,000  Level FlightAware ADS-B
10:39PM 29.3966 -94.5029 140° Southeast 476 548 35,000  Level FlightAware ADS-B
10:40PM 29.3453 -94.4542 140° Southeast 474 545 35,000  Level FlightAware ADS-B
10:41PM 29.2320 -94.3450 140° Southeast 471 542 35,000  Level FlightAware
10:42PM 29.1780 -94.2910 139° Southeast 471 542 35,000  Level FlightAware
10:43PM 29.0650 -94.1820 140° Southeast 478 550 35,000  Level FlightAware
10:43PM 29.0130 -94.1300 139° Southeast 478 550 35,000  Level FlightAware
10:44PM 28.9450 -94.0620 139° Southeast 478 550 35,000  Level FlightAware
10:45PM 28.8930 -94.0120 140° Southeast 478 550 35,000  Level FlightAware
10:45PM 28.8400 -93.9580 138° Southeast 478 550 35,000  Level FlightAware
10:46PM 28.7710 -93.8910 140° Southeast 478 550 35,000  Level FlightAware
10:46PM 28.6259 -93.8326 161° South 507 583 35,000  Level FlightAware ADS-B
10:47PM 28.5689 -93.7853 144° Southeast 506 582 35,000  Level FlightAware ADS-B
10:47PM 28.5117 -93.7373 144° Southeast 505 581 35,000  Level FlightAware ADS-B
10:48PM 28.4555 -93.6875 142° Southeast 506 582 35,000  Level FlightAware ADS-B
10:49PM 28.3657 -93.5808 134° Southeast 507 583 35,000  Level FlightAware ADS-B
10:50PM 28.2917 -93.4772 134° Southeast 510 587 35,000  Level Houston Center
10:51PM 28.2033 -93.3528 129° Southeast 510 587 35,000 -60 Level Houston Center
10:52PM 28.1081 -93.2219 130° Southeast 505 581 34,900 -60 Descending Houston Center
10:53PM 28.0186 -93.0975 129° Southeast 509 586 34,900  Level Houston Center
10:54PM 27.9286 -92.9742 130° Southeast 508 585 35,000  Climbing Houston Center
10:55PM 27.8200 -92.8261 130° Southeast 512 589 35,000  Level Houston Center
10:56PM 27.7292 -92.6997 129° Southeast 516 594 35,000  Level Houston Center
10:57PM 27.6369 -92.5756 130° Southeast 516 594 35,000 -60 Level Houston Center
10:58PM 27.5444 -92.4514 130° Southeast 517 595 34,900  Descending Houston Center
10:59PM 27.4542 -92.3242 129° Southeast 520 598 35,000  Climbing Houston Center
11:00PM 27.3611 -92.2022 131° Southeast 516 594 34,900  Descending Houston Center
11:01PM 27.2689 -92.0750 129° Southeast 522 601 35,000  Climbing Houston Center
11:02PM 27.1739 -91.9517 131° Southeast 523 602 35,000  Level Houston Center
11:04PM 27.0241 -91.8292 144° Southeast  Level FlightAware Approximate
11:11PM 26.2625 -91.2142 145° Southeast  Level FlightAware Approximate
11:12PM 26.1531 -91.1281 145° Southeast  Level FlightAware Approximate
11:13PM 26.0436 -91.0421 145° Southeast  Level FlightAware Approximate
11:14PM 25.9342 -90.9563 145° Southeast  Level FlightAware Approximate
11:15PM 25.8246 -90.8707 145° Southeast  Level FlightAware Approximate
11:16PM 25.7151 -90.7852 145° Southeast  Level FlightAware Approximate
11:17PM 25.6054 -90.6998 145° Southeast  Level FlightAware Approximate
11:18PM 25.4958 -90.6147 145° Southeast  Level FlightAware Approximate
11:19PM 25.3860 -90.5296 145° Southeast  Level FlightAware Approximate
11:20PM 25.2762 -90.4448 145° Southeast  Level FlightAware Approximate
11:21PM 25.1664 -90.3600 145° Southeast  Level FlightAware Approximate
11:22PM 25.0565 -90.2755 145° Southeast  Level FlightAware Approximate
11:23PM 24.9466 -90.1911 145° Southeast  Level FlightAware Approximate
11:24PM 24.8366 -90.1068 145° Southeast  Level FlightAware Approximate
11:25PM 24.7266 -90.0227 145° Southeast  Level FlightAware Approximate
11:26PM 24.6174 -89.9394 145° Southeast  Level FlightAware Approximate
11:27PM 24.5081 -89.8562 145° Southeast  Level FlightAware Approximate
11:28PM 24.3998 -89.7721 146° Southeast  Level FlightAware Approximate
11:29PM 24.2892 -89.6911 146° Southeast  Level FlightAware Approximate
11:30PM 24.1786 -89.6104 146° Southeast  Level FlightAware Approximate
11:31PM 24.0679 -89.5297 146° Southeast  Level FlightAware Approximate
11:32PM 23.9585 -89.4471 145° Southeast  Level FlightAware Approximate
11:33PM 23.8493 -89.3642 145° Southeast  Level FlightAware Approximate
11:34PM 23.7401 -89.2815 145° Southeast  Level FlightAware Approximate
11:35PM 23.6308 -89.1989 145° Southeast  Level FlightAware Approximate
11:36PM 23.5215 -89.1165 145° Southeast  Level FlightAware Approximate
11:37PM 23.4121 -89.0341 145° Southeast  Level FlightAware Approximate
11:38PM 23.3027 -88.9520 145° Southeast  Level FlightAware Approximate
11:39PM 23.1933 -88.8699 145° Southeast  Level FlightAware Approximate
11:40PM 23.0843 -88.7873 145° Southeast  Level FlightAware Approximate
11:41PM 22.9754 -88.7045 145° Southeast  Level FlightAware Approximate
11:42PM 22.8664 -88.6219 145° Southeast  Level FlightAware Approximate
11:43PM 22.7575 -88.5394 145° Southeast  Level FlightAware Approximate
11:44PM 22.6520 -88.4521 137° Southeast  Level FlightAware Approximate
11:45PM 22.5542 -88.3547 137° Southeast  Level FlightAware Approximate
11:46PM 22.4563 -88.2574 137° Southeast  Level FlightAware Approximate
11:47PM 22.3583 -88.1602 137° Southeast  Level FlightAware Approximate
11:48PM 22.2603 -88.0632 138° Southeast  Level FlightAware Approximate
11:49PM 22.1623 -87.9663 138° Southeast  Level FlightAware Approximate
11:50PM 22.0641 -87.8696 138° Southeast  Level FlightAware Approximate
11:51PM 21.9659 -87.7730 138° Southeast  Level FlightAware Approximate
11:52PM 21.8677 -87.6765 138° Southeast  Level FlightAware Approximate
11:53PM 21.7696 -87.5804 138° Southeast  Level FlightAware Approximate
11:54PM 21.6714 -87.4843 138° Southeast  Level FlightAware Approximate
11:55PM 21.5732 -87.3884 138° Southeast  Level FlightAware Approximate
11:56PM 21.4748 -87.2927 138° Southeast  Level FlightAware Approximate
11:57PM 21.3764 -87.1972 138° Southeast  Level FlightAware Approximate
11:58PM 21.2778 -87.1019 138° Southeast  Level FlightAware Approximate
11:59PM 21.1792 -87.0066 138° Southeast  Level FlightAware Approximate
12:00AM 21.0806 -86.9115 138° Southeast  Level FlightAware Approximate
12:01AM 20.9821 -86.8163 138° Southeast  Level FlightAware Approximate
12:02AM 20.8840 -86.7207 138° Southeast  Level FlightAware Approximate
12:03AM 20.7858 -86.6253 138° Southeast  Level FlightAware Approximate
12:04AM 20.6876 -86.5299 138° Southeast  Level FlightAware Approximate
12:05AM 20.5893 -86.4347 138° Southeast  Level FlightAware Approximate
12:06AM 20.4910 -86.3396 138° Southeast  Level FlightAware Approximate
12:07AM 20.3926 -86.2446 138° Southeast  Level FlightAware Approximate
12:08AM 20.2941 -86.1498 138° Southeast  Level FlightAware Approximate
12:09AM 20.1956 -86.0551 138° Southeast  Level FlightAware Approximate
12:10AM 20.0971 -85.9604 138° Southeast  Level FlightAware Approximate
12:11AM 19.9984 -85.8661 138° Southeast  Level FlightAware Approximate
12:12AM 19.8992 -85.7724 138° Southeast  Level FlightAware Approximate
12:13AM 19.7999 -85.6788 138° Southeast  Level FlightAware Approximate
12:14AM 19.7006 -85.5854 138° Southeast  Level FlightAware Approximate
12:15AM 19.6013 -85.4920 138° Southeast  Level FlightAware Approximate
12:16AM 19.5017 -85.3986 139° Southeast  Level FlightAware Approximate
12:17AM 19.4021 -85.3054 139° Southeast  Level FlightAware Approximate
12:18AM 19.3024 -85.2122 139° Southeast  Level FlightAware Approximate
12:19AM 19.2027 -85.1192 139° Southeast  Level FlightAware Approximate
12:20AM 19.1029 -85.0262 139° Southeast  Level FlightAware Approximate
12:21AM 19.0030 -84.9334 139° Southeast  Level FlightAware Approximate
12:22AM 18.9032 -84.8407 139° Southeast  Level FlightAware Approximate
12:23AM 18.8033 -84.7481 139° Southeast  Level FlightAware Approximate
12:24AM 18.7033 -84.6556 139° Southeast  Level FlightAware Approximate
12:25AM 18.6033 -84.5632 139° Southeast  Level FlightAware Approximate
12:26AM 18.5069 -84.4676 123° Southeast  Level FlightAware Approximate
12:27AM 18.4337 -84.3506 123° Southeast  Level FlightAware Approximate
12:28AM 18.3582 -84.2354 125° Southeast  Level FlightAware Approximate
12:29AM 18.2825 -84.1203 125° Southeast  Level FlightAware Approximate
12:30AM 18.2068 -84.0053 125° Southeast  Level FlightAware Approximate
12:31AM 18.1311 -83.8904 125° Southeast  Level FlightAware Approximate
12:32AM 18.0552 -83.7756 125° Southeast  Level FlightAware Approximate
12:33AM 17.9793 -83.6609 125° Southeast  Level FlightAware Approximate
12:34AM 17.8918 -83.5565 135° Southeast  Level FlightAware Approximate
12:35AM 17.7970 -83.4587 136° Southeast  Level FlightAware Approximate
12:36AM 17.7021 -83.3610 136° Southeast  Level FlightAware Approximate
12:37AM 17.6072 -83.2634 136° Southeast  Level FlightAware Approximate
12:38AM 17.5122 -83.1658 136° Southeast  Level FlightAware Approximate
12:39AM 17.4172 -83.0684 136° Southeast  Level FlightAware Approximate
12:40AM 17.3198 -82.9738 139° Southeast  Level FlightAware Approximate
12:41AM 17.2197 -82.8823 139° Southeast  Level FlightAware Approximate
12:42AM 17.1195 -82.7909 139° Southeast  Level FlightAware Approximate
12:43AM 17.0193 -82.6996 139° Southeast  Level FlightAware Approximate
12:44AM 16.9191 -82.6084 139° Southeast  Level FlightAware Approximate
12:45AM 16.8188 -82.5172 139° Southeast  Level FlightAware Approximate
12:46AM 16.7184 -82.4262 139° Southeast  Level FlightAware Approximate
12:47AM 16.6181 -82.3353 139° Southeast  Level FlightAware Approximate
12:48AM 16.5177 -82.2445 139° Southeast  Level FlightAware Approximate
12:49AM 16.4199 -82.1510 134° Southeast  Level FlightAware Approximate
12:50AM 16.3275 -82.0519 134° Southeast  Level FlightAware Approximate
12:51AM 16.2350 -81.9528 134° Southeast  Level FlightAware Approximate
12:52AM 16.1425 -81.8538 134° Southeast  Level FlightAware Approximate
12:53AM 16.0499 -81.7549 134° Southeast  Level FlightAware Approximate
12:54AM 15.9573 -81.6561 134° Southeast  Level FlightAware Approximate
12:55AM 15.8646 -81.5574 134° Southeast  Level FlightAware Approximate
12:56AM 15.7719 -81.4587 134° Southeast  Level FlightAware Approximate
12:57AM 15.6798 -81.3595 133° Southeast  Level FlightAware Approximate
12:58AM 15.5887 -81.2595 133° Southeast  Level FlightAware Approximate
12:59AM 15.4974 -81.1595 133° Southeast  Level FlightAware Approximate
01:00AM 15.4062 -81.0596 133° Southeast  Level FlightAware Approximate
01:01AM 15.3149 -80.9598 133° Southeast  Level FlightAware Approximate
01:02AM 15.2235 -80.8601 134° Southeast  Level FlightAware Approximate
01:03AM 15.1321 -80.7605 134° Southeast  Level FlightAware Approximate
01:04AM 15.0407 -80.6609 134° Southeast  Level FlightAware Approximate
01:05AM 14.9419 -80.5698 142° Southeast  Level FlightAware Approximate
01:06AM 14.8371 -80.4856 142° Southeast  Level FlightAware Approximate
01:07AM 14.7324 -80.4014 142° Southeast  Level FlightAware Approximate
01:08AM 14.6276 -80.3173 142° Southeast  Level FlightAware Approximate
01:09AM 14.5228 -80.2333 142° Southeast  Level FlightAware Approximate
01:10AM 14.4179 -80.1494 142° Southeast  Level FlightAware Approximate
01:11AM 14.3130 -80.0656 142° Southeast  Level FlightAware Approximate
01:12AM 14.2081 -79.9818 142° Southeast  Level FlightAware Approximate
01:13AM 14.1032 -79.8981 142° Southeast  Level FlightAware Approximate
01:14AM 13.9982 -79.8145 142° Southeast  Level FlightAware Approximate
01:15AM 13.8932 -79.7309 142° Southeast  Level FlightAware Approximate
01:16AM 13.7884 -79.6470 142° Southeast  Level FlightAware Approximate
01:17AM 13.6841 -79.5627 142° Southeast  Level FlightAware Approximate
01:18AM 13.5797 -79.4785 142° Southeast  Level FlightAware Approximate
01:19AM 13.4752 -79.3944 142° Southeast  Level FlightAware Approximate
01:20AM 13.3708 -79.3103 142° Southeast  Level FlightAware Approximate
01:21AM 13.2663 -79.2263 142° Southeast  Level FlightAware Approximate
01:22AM 13.1618 -79.1424 142° Southeast  Level FlightAware Approximate
01:23AM 13.0573 -79.0585 142° Southeast  Level FlightAware Approximate
01:24AM 12.9527 -78.9747 142° Southeast  Level FlightAware Approximate
01:25AM 12.8481 -78.8910 142° Southeast  Level FlightAware Approximate
01:26AM 12.7435 -78.8073 142° Southeast  Level FlightAware Approximate
01:27AM 12.6388 -78.7238 142° Southeast  Level FlightAware Approximate
01:28AM 12.5342 -78.6403 142° Southeast  Level FlightAware Approximate
01:29AM 12.4295 -78.5568 142° Southeast  Level FlightAware Approximate
01:30AM 12.3240 -78.4744 143° Southeast  Level FlightAware Approximate
01:30AM 11.4320 -77.7830 143° Southeast 493 567 35,000  Level FlightAware
01:31AM 12.2182 -78.3925 143° Southeast  Level FlightAware Approximate
01:31AM 11.3660 -77.7310 142° Southeast 493 567 35,000  Level FlightAware
01:32AM 11.2670 -77.6540 143° Southeast 493 567 35,000  Level FlightAware
01:33AM 11.2120 -77.6100 142° Southeast 493 567 35,000  Level FlightAware
01:33AM 11.1390 -77.5520 142° Southeast 493 567 35,000  Level FlightAware
01:35AM 10.9700 -77.4250 144° Southeast 500 575 35,000  Level FlightAware
01:35AM 10.9020 -77.3640 139° Southeast 498 573 35,000  Level FlightAware
01:36AM 10.8250 -77.2920 137° Southeast 492 566 35,000  Level FlightAware
01:37AM 10.7470 -77.2170 137° Southeast 493 567 35,000  Level FlightAware
01:38AM 10.6800 -77.1520 136° Southeast 493 567 35,000  Level FlightAware
01:38AM 10.6300 -77.1020 135° Southeast 493 567 35,000  Level FlightAware
01:39AM 10.4990 -76.9880 139° Southeast 491 565 35,000  Level FlightAware
01:40AM 10.4190 -76.9130 137° Southeast 490 564 35,000  Level FlightAware
01:41AM 10.3240 -76.8260 138° Southeast 488 562 35,000  Level FlightAware
01:42AM 10.2580 -76.7650 138° Southeast 486 559 35,000  Level FlightAware
01:42AM 10.1910 -76.7020 137° Southeast 486 559 35,000  Level FlightAware
01:43AM 10.1270 -76.6400 136° Southeast 486 559 35,000  Level FlightAware
01:44AM 10.0470 -76.5680 138° Southeast 483 556 35,000  Level FlightAware
01:44AM 9.9710 -76.4990 138° Southeast 481 554 35,000  Level FlightAware
01:45AM 9.9050 -76.4370 137° Southeast 481 554 35,000  Level FlightAware
01:46AM 9.8380 -76.3750 138° Southeast 481 554 35,000  Level FlightAware
01:47AM 9.7620 -76.3050 138° Southeast 481 554 35,000  Level FlightAware
01:47AM 9.6880 -76.2370 138° Southeast 482 555 35,000  Level FlightAware
01:48AM 9.6170 -76.1680 136° Southeast 482 555 35,000  Level FlightAware
01:49AM 9.5680 -76.1200 136° Southeast 482 555 35,000  Level FlightAware
01:50AM 9.5030 -76.0560 136° Southeast 482 555 35,000  Level FlightAware
01:50AM 9.4520 -76.0060 136° Southeast 482 555 35,000  Level FlightAware
01:51AM 9.3860 -75.9410 136° Southeast 482 555 35,000  Level FlightAware
01:52AM 9.3350 -75.8910 136° Southeast 482 555 35,000  Level FlightAware
01:52AM 9.2860 -75.8430 136° Southeast 482 555 35,000  Level FlightAware
01:53AM 9.2210 -75.7790 136° Southeast 482 555 35,000  Level FlightAware
01:54AM 9.0380 -75.6380 143° Southeast 493 567 35,000  Level FlightAware
01:54AM 8.9600 -75.5660 138° Southeast 492 566 35,000  Level FlightAware
01:55AM 8.8920 -75.5040 138° Southeast 493 567 35,000  Level FlightAware
01:56AM 8.8150 -75.4330 138° Southeast 494 568 35,000  Level FlightAware
01:57AM 8.7460 -75.3700 138° Southeast 495 570 35,000  Level FlightAware
01:57AM 8.6530 -75.2850 138° Southeast 497 572 35,000  Level FlightAware
01:58AM 8.5830 -75.2210 138° Southeast 498 573 35,000  Level FlightAware
01:59AM 8.5070 -75.1510 138° Southeast 498 573 35,000  Level FlightAware
02:00AM 8.4530 -75.1020 138° Southeast 498 573 35,000  Level FlightAware
02:00AM 8.3520 -75.0100 138° Southeast 498 573 35,000  Level FlightAware
02:01AM 8.2810 -74.9450 138° Southeast 498 573 35,000  Level FlightAware
02:02AM 8.2280 -74.8970 138° Southeast 498 573 35,000  Level FlightAware
02:03AM 8.1570 -74.8320 138° Southeast 498 573 35,000  Level FlightAware
02:03AM 8.1050 -74.7850 138° Southeast 498 573 35,000  Level FlightAware
02:04AM 8.0330 -74.7200 138° Southeast 498 573 35,000  Level FlightAware
02:05AM 7.9750 -74.6670 138° Southeast 498 573 35,000  Level FlightAware
02:05AM 7.9230 -74.6190 138° Southeast 498 573 35,000  Level FlightAware
02:06AM 7.8510 -74.5540 138° Southeast 498 573 35,000  Level FlightAware
02:07AM 7.7990 -74.5070 138° Southeast 498 573 35,000  Level FlightAware
02:08AM 7.7280 -74.4420 138° Southeast 498 573 35,000  Level FlightAware
02:08AM 7.6750 -74.3940 138° Southeast 498 573 35,000  Level FlightAware
02:09AM 7.6070 -74.3320 138° Southeast 498 573 35,000  Level FlightAware
02:10AM 7.5570 -74.2870 138° Southeast 498 573 35,000  Level FlightAware
02:12AM 7.3655 -74.1142 138° Southeast  Level FlightAware Approximate
02:13AM 7.2664 -74.0249 138° Southeast  Level FlightAware Approximate
02:14AM 7.1673 -73.9356 138° Southeast  Level FlightAware Approximate
02:15AM 7.0682 -73.8464 138° Southeast  Level FlightAware Approximate
02:16AM 6.9608 -73.7696 152° Southeast  Level FlightAware Approximate
02:17AM 6.8440 -73.7061 152° Southeast  Level FlightAware Approximate
02:18AM 6.7273 -73.6427 152° Southeast  Level FlightAware Approximate
02:19AM 6.6105 -73.5793 152° Southeast  Level FlightAware Approximate
02:20AM 6.4938 -73.5159 152° Southeast  Level FlightAware Approximate
02:21AM 6.3770 -73.4525 152° Southeast  Level FlightAware Approximate
02:22AM 6.2602 -73.3892 152° Southeast  Level FlightAware Approximate
02:23AM 6.1434 -73.3259 152° Southeast  Level FlightAware Approximate
02:24AM 6.0266 -73.2626 152° Southeast  Level FlightAware Approximate
02:25AM 5.9099 -73.1994 152° Southeast  Level FlightAware Approximate
02:26AM 5.7930 -73.1362 152° Southeast  Level FlightAware Approximate
02:27AM 5.6762 -73.0730 152° Southeast  Level FlightAware Approximate
02:28AM 5.5594 -73.0098 152° Southeast  Level FlightAware Approximate
02:29AM 5.4426 -72.9467 152° Southeast  Level FlightAware Approximate
02:30AM 5.3257 -72.8836 152° Southeast  Level FlightAware Approximate
02:31AM 5.2089 -72.8205 152° Southeast  Level FlightAware Approximate
02:32AM 5.0920 -72.7574 152° Southeast  Level FlightAware Approximate
02:33AM 4.9752 -72.6944 152° Southeast  Level FlightAware Approximate
02:34AM 4.8583 -72.6313 152° Southeast  Level FlightAware Approximate
02:35AM 4.7415 -72.5684 152° Southeast  Level FlightAware Approximate
02:36AM 4.6246 -72.5054 152° Southeast  Level FlightAware Approximate
02:37AM 4.5077 -72.4424 152° Southeast  Level FlightAware Approximate
02:38AM 4.3908 -72.3795 152° Southeast  Level FlightAware Approximate
02:39AM 4.2739 -72.3166 152° Southeast  Level FlightAware Approximate
02:40AM 4.1571 -72.2536 152° Southeast  Level FlightAware Approximate
02:41AM 4.0402 -72.1908 152° Southeast  Level FlightAware Approximate
02:42AM 3.9242 -72.1269 145° Southeast  Level FlightAware Approximate
02:43AM 3.8159 -72.0504 145° Southeast  Level FlightAware Approximate
02:44AM 3.7076 -71.9740 145° Southeast  Level FlightAware Approximate
02:45AM 3.5993 -71.8977 145° Southeast  Level FlightAware Approximate
02:46AM 3.4910 -71.8213 145° Southeast  Level FlightAware Approximate
02:47AM 3.3827 -71.7450 145° Southeast  Level FlightAware Approximate
02:48AM 3.2744 -71.6686 145° Southeast  Level FlightAware Approximate
02:49AM 3.1661 -71.5923 145° Southeast  Level FlightAware Approximate
02:50AM 3.0578 -71.5160 145° Southeast  Level FlightAware Approximate
02:51AM 2.9495 -71.4398 145° Southeast  Level FlightAware Approximate
02:52AM 2.8411 -71.3635 145° Southeast  Level FlightAware Approximate
02:53AM 2.7328 -71.2872 145° Southeast  Level FlightAware Approximate
02:54AM 2.6245 -71.2110 145° Southeast  Level FlightAware Approximate
02:55AM 2.5161 -71.1348 145° Southeast  Level FlightAware Approximate
02:56AM 2.4078 -71.0586 145° Southeast  Level FlightAware Approximate
02:57AM 2.2994 -70.9824 145° Southeast  Level FlightAware Approximate
02:58AM 2.1911 -70.9062 145° Southeast  Level FlightAware Approximate
02:59AM 2.0827 -70.8300 145° Southeast  Level FlightAware Approximate
03:00AM 1.9743 -70.7539 145° Southeast  Level FlightAware Approximate
03:01AM 1.8660 -70.6777 145° Southeast  Level FlightAware Approximate
03:02AM 1.7576 -70.6015 145° Southeast  Level FlightAware Approximate
03:03AM 1.6492 -70.5254 145° Southeast  Level FlightAware Approximate
03:04AM 1.5408 -70.4493 145° Southeast  Level FlightAware Approximate
03:05AM 1.4325 -70.3732 145° Southeast  Level FlightAware Approximate
03:06AM 1.3241 -70.2971 145° Southeast  Level FlightAware Approximate
03:07AM 1.2172 -70.2190 138° Southeast  Level FlightAware Approximate
03:08AM 1.1183 -70.1309 138° Southeast  Level FlightAware Approximate
03:09AM 1.0194 -70.0429 138° Southeast  Level FlightAware Approximate
03:10AM 0.9210 -69.9553 138° Southeast  Level FlightAware Approximate
03:11AM 0.8226 -69.8677 138° Southeast  Level FlightAware Approximate
03:12AM 0.7242 -69.7802 138° Southeast  Level FlightAware Approximate
03:13AM 0.6258 -69.6926 138° Southeast  Level FlightAware Approximate
03:14AM 0.5274 -69.6050 138° Southeast  Level FlightAware Approximate
03:15AM 0.4289 -69.5174 138° Southeast  Level FlightAware Approximate
03:16AM 0.3305 -69.4299 138° Southeast  Level FlightAware Approximate
03:17AM 0.2321 -69.3423 138° Southeast  Level FlightAware Approximate
03:18AM 0.1337 -69.2548 138° Southeast  Level FlightAware Approximate
03:19AM 0.0353 -69.1672 138° Southeast  Level FlightAware Approximate
03:20AM -0.0631 -69.0797 138° Southeast  Level FlightAware Approximate
03:21AM -0.1615 -68.9921 138° Southeast  Level FlightAware Approximate
03:22AM -0.2599 -68.9045 138° Southeast  Level FlightAware Approximate
03:23AM -0.3583 -68.8170 138° Southeast  Level FlightAware Approximate
03:24AM -0.4568 -68.7294 138° Southeast  Level FlightAware Approximate
03:25AM -0.5552 -68.6419 138° Southeast  Level FlightAware Approximate
03:26AM -0.6536 -68.5543 138° Southeast  Level FlightAware Approximate
03:27AM -0.7520 -68.4667 138° Southeast  Level FlightAware Approximate
03:28AM -0.8504 -68.3791 138° Southeast  Level FlightAware Approximate
03:29AM -0.9488 -68.2916 138° Southeast  Level FlightAware Approximate
03:30AM -1.0472 -68.2040 138° Southeast  Level FlightAware Approximate
03:31AM -1.1456 -68.1164 138° Southeast  Level FlightAware Approximate
03:32AM -1.2440 -68.0288 138° Southeast  Level FlightAware Approximate
03:33AM -1.3424 -67.9412 138° Southeast  Level FlightAware Approximate
03:34AM -1.4408 -67.8536 138° Southeast  Level FlightAware Approximate
03:35AM -1.5392 -67.7660 138° Southeast  Level FlightAware Approximate
03:36AM -1.6375 -67.6783 138° Southeast  Level FlightAware Approximate
03:37AM -1.7359 -67.5907 138° Southeast  Level FlightAware Approximate
03:38AM -1.8343 -67.5031 138° Southeast  Level FlightAware Approximate
03:39AM -1.9327 -67.4154 138° Southeast  Level FlightAware Approximate
03:40AM -2.0310 -67.3278 138° Southeast  Level FlightAware Approximate
03:41AM -2.1294 -67.2401 138° Southeast  Level FlightAware Approximate
03:42AM -2.2278 -67.1524 138° Southeast  Level FlightAware Approximate
03:43AM -2.3261 -67.0647 138° Southeast  Level FlightAware Approximate
03:44AM -2.4245 -66.9770 138° Southeast  Level FlightAware Approximate
03:45AM -2.5228 -66.8893 138° Southeast  Level FlightAware Approximate
03:46AM -2.6211 -66.8016 138° Southeast  Level FlightAware Approximate
03:47AM -2.7195 -66.7138 138° Southeast  Level FlightAware Approximate
03:48AM -2.8178 -66.6260 138° Southeast  Level FlightAware Approximate
03:49AM -2.9161 -66.5383 138° Southeast  Level FlightAware Approximate
03:50AM -3.0144 -66.4505 138° Southeast  Level FlightAware Approximate
03:51AM -3.1127 -66.3627 138° Southeast  Level FlightAware Approximate
03:52AM -3.2110 -66.2748 138° Southeast  Level FlightAware Approximate
03:53AM -3.3093 -66.1870 138° Southeast  Level FlightAware Approximate
03:54AM -3.4076 -66.0991 138° Southeast  Level FlightAware Approximate
03:55AM -3.5059 -66.0113 138° Southeast  Level FlightAware Approximate
03:56AM -3.6041 -65.9234 138° Southeast  Level FlightAware Approximate
03:57AM -3.7024 -65.8354 138° Southeast  Level FlightAware Approximate
03:58AM -3.8006 -65.7475 138° Southeast  Level FlightAware Approximate
03:59AM -3.8989 -65.6596 138° Southeast  Level FlightAware Approximate
04:00AM -3.9971 -65.5716 138° Southeast  Level FlightAware Approximate
04:01AM -4.0953 -65.4836 138° Southeast  Level FlightAware Approximate
04:02AM -4.1935 -65.3956 138° Southeast  Level FlightAware Approximate
04:03AM -4.2917 -65.3075 138° Southeast  Level FlightAware Approximate
04:04AM -4.3899 -65.2195 138° Southeast  Level FlightAware Approximate
04:05AM -4.4881 -65.1314 138° Southeast  Level FlightAware Approximate
04:06AM -4.5863 -65.0433 138° Southeast  Level FlightAware Approximate
04:07AM -4.6844 -64.9551 138° Southeast  Level FlightAware Approximate
04:08AM -4.7826 -64.8670 138° Southeast  Level FlightAware Approximate
04:09AM -4.8807 -64.7788 138° Southeast  Level FlightAware Approximate
04:10AM -4.9788 -64.6906 138° Southeast  Level FlightAware Approximate
04:11AM -5.0770 -64.6024 138° Southeast  Level FlightAware Approximate
04:12AM -5.1750 -64.5141 138° Southeast  Level FlightAware Approximate
04:13AM -5.2731 -64.4258 138° Southeast  Level FlightAware Approximate
04:14AM -5.3712 -64.3375 138° Southeast  Level FlightAware Approximate
04:15AM -5.4693 -64.2491 138° Southeast  Level FlightAware Approximate
04:16AM -5.5673 -64.1608 138° Southeast  Level FlightAware Approximate
04:17AM -5.6654 -64.0724 138° Southeast  Level FlightAware Approximate
04:18AM -5.7634 -63.9839 138° Southeast  Level FlightAware Approximate
04:19AM -5.8614 -63.8955 138° Southeast  Level FlightAware Approximate
04:20AM -5.9594 -63.8070 138° Southeast  Level FlightAware Approximate
04:21AM -6.0574 -63.7184 138° Southeast  Level FlightAware Approximate
04:22AM -6.1554 -63.6299 138° Southeast  Level FlightAware Approximate
04:23AM -6.2533 -63.5413 138° Southeast  Level FlightAware Approximate
04:24AM -6.3512 -63.4527 138° Southeast  Level FlightAware Approximate
04:25AM -6.4492 -63.3640 138° Southeast  Level FlightAware Approximate
04:26AM -6.5469 -63.2755 138° Southeast  Level FlightAware Approximate
04:27AM -6.6446 -63.1869 138° Southeast  Level FlightAware Approximate
04:28AM -6.7423 -63.0983 138° Southeast  Level FlightAware Approximate
04:29AM -6.8400 -63.0097 138° Southeast  Level FlightAware Approximate
04:30AM -6.9377 -62.9210 138° Southeast  Level FlightAware Approximate
04:31AM -7.0353 -62.8322 138° Southeast  Level FlightAware Approximate
04:32AM -7.1330 -62.7435 138° Southeast  Level FlightAware Approximate
04:33AM -7.2306 -62.6547 138° Southeast  Level FlightAware Approximate
04:34AM -7.3282 -62.5659 138° Southeast  Level FlightAware Approximate
04:35AM -7.4258 -62.4770 138° Southeast  Level FlightAware Approximate
04:36AM -7.5233 -62.3881 138° Southeast  Level FlightAware Approximate
04:37AM -7.6209 -62.2991 138° Southeast  Level FlightAware Approximate
04:38AM -7.7184 -62.2102 138° Southeast  Level FlightAware Approximate
04:39AM -7.8159 -62.1211 138° Southeast  Level FlightAware Approximate
04:40AM -7.9134 -62.0321 138° Southeast  Level FlightAware Approximate
04:41AM -8.0109 -61.9430 138° Southeast  Level FlightAware Approximate
04:42AM -8.1084 -61.8538 138° Southeast  Level FlightAware Approximate
04:43AM -8.2058 -61.7646 138° Southeast  Level FlightAware Approximate
04:44AM -8.3032 -61.6754 138° Southeast  Level FlightAware Approximate
04:45AM -8.4008 -61.5859 138° Southeast  Level FlightAware Approximate
04:46AM -8.4984 -61.4964 138° Southeast  Level FlightAware Approximate
04:47AM -8.5959 -61.4069 138° Southeast  Level FlightAware Approximate
04:48AM -8.6934 -61.3173 138° Southeast  Level FlightAware Approximate
04:49AM -8.7909 -61.2277 138° Southeast  Level FlightAware Approximate
04:50AM -8.8883 -61.1380 138° Southeast  Level FlightAware Approximate
04:51AM -8.9858 -61.0483 138° Southeast  Level FlightAware Approximate
04:52AM -9.0832 -60.9585 138° Southeast  Level FlightAware Approximate
04:53AM -9.1806 -60.8687 138° Southeast  Level FlightAware Approximate
04:54AM -9.2780 -60.7788 138° Southeast  Level FlightAware Approximate
04:55AM -9.3754 -60.6889 138° Southeast  Level FlightAware Approximate
04:56AM -9.4729 -60.5988 138° Southeast  Level FlightAware Approximate
04:57AM -9.5703 -60.5086 138° Southeast  Level FlightAware Approximate
04:58AM -9.6678 -60.4184 138° Southeast  Level FlightAware Approximate
04:59AM -9.7653 -60.3281 138° Southeast  Level FlightAware Approximate
05:00AM -9.8627 -60.2377 138° Southeast  Level FlightAware Approximate
05:01AM -9.9600 -60.1473 138° Southeast  Level FlightAware Approximate
05:02AM -10.0574 -60.0569 138° Southeast  Level FlightAware Approximate
05:03AM -10.1547 -59.9664 138° Southeast  Level FlightAware Approximate
05:04AM -10.2521 -59.8759 138° Southeast  Level FlightAware Approximate
05:05AM -10.3494 -59.7852 138° Southeast  Level FlightAware Approximate
05:06AM -10.4466 -59.6946 137° Southeast  Level FlightAware Approximate
05:07AM -10.5437 -59.6040 137° Southeast  Level FlightAware Approximate
05:08AM -10.6407 -59.5134 137° Southeast  Level FlightAware Approximate
05:09AM -10.7378 -59.4227 137° Southeast  Level FlightAware Approximate
05:10AM -10.8348 -59.3320 137° Southeast  Level FlightAware Approximate
05:11AM -10.9317 -59.2412 137° Southeast  Level FlightAware Approximate
05:12AM -11.0287 -59.1503 137° Southeast  Level FlightAware Approximate
05:13AM -11.1256 -59.0594 137° Southeast  Level FlightAware Approximate
05:14AM -11.2224 -58.9684 137° Southeast  Level FlightAware Approximate
05:15AM -11.3193 -58.8774 137° Southeast  Level FlightAware Approximate
05:16AM -11.4161 -58.7863 137° Southeast  Level FlightAware Approximate
05:17AM -11.5129 -58.6951 137° Southeast  Level FlightAware Approximate
05:18AM -11.6097 -58.6039 137° Southeast  Level FlightAware Approximate
05:19AM -11.7064 -58.5126 137° Southeast  Level FlightAware Approximate
05:20AM -11.8031 -58.4213 137° Southeast  Level FlightAware Approximate
05:21AM -11.8998 -58.3299 137° Southeast  Level FlightAware Approximate
05:22AM -11.9965 -58.2384 137° Southeast  Level FlightAware Approximate
05:23AM -12.0931 -58.1469 137° Southeast  Level FlightAware Approximate
05:24AM -12.1897 -58.0553 137° Southeast  Level FlightAware Approximate
05:25AM -12.2862 -57.9636 137° Southeast  Level FlightAware Approximate
05:26AM -12.3828 -57.8718 137° Southeast  Level FlightAware Approximate
05:27AM -12.4793 -57.7800 137° Southeast  Level FlightAware Approximate
05:28AM -12.5757 -57.6881 137° Southeast  Level FlightAware Approximate
05:29AM -12.6722 -57.5962 137° Southeast  Level FlightAware Approximate
05:30AM -12.7686 -57.5042 137° Southeast  Level FlightAware Approximate
05:31AM -12.8650 -57.4121 137° Southeast  Level FlightAware Approximate
05:32AM -12.9613 -57.3199 137° Southeast  Level FlightAware Approximate
05:33AM -13.0576 -57.2277 137° Southeast  Level FlightAware Approximate
05:34AM -13.1539 -57.1354 137° Southeast  Level FlightAware Approximate
05:35AM -13.2501 -57.0430 137° Southeast  Level FlightAware Approximate
05:36AM -13.3464 -56.9506 137° Southeast  Level FlightAware Approximate
05:37AM -13.4425 -56.8581 137° Southeast  Level FlightAware Approximate
05:38AM -13.5387 -56.7654 137° Southeast  Level FlightAware Approximate
05:39AM -13.6348 -56.6728 137° Southeast  Level FlightAware Approximate
05:40AM -13.7309 -56.5800 137° Southeast  Level FlightAware Approximate
05:41AM -13.8269 -56.4872 137° Southeast  Level FlightAware Approximate
05:42AM -13.9229 -56.3943 137° Southeast  Level FlightAware Approximate
05:43AM -14.0189 -56.3013 137° Southeast  Level FlightAware Approximate
05:44AM -14.1148 -56.2083 137° Southeast  Level FlightAware Approximate
05:45AM -14.2107 -56.1152 137° Southeast  Level FlightAware Approximate
05:46AM -14.3066 -56.0219 137° Southeast  Level FlightAware Approximate
05:47AM -14.4024 -55.9286 137° Southeast  Level FlightAware Approximate
05:48AM -14.4982 -55.8353 137° Southeast  Level FlightAware Approximate
05:49AM -14.5940 -55.7418 137° Southeast  Level FlightAware Approximate
05:50AM -14.6897 -55.6483 137° Southeast  Level FlightAware Approximate
05:51AM -14.7854 -55.5547 137° Southeast  Level FlightAware Approximate
05:52AM -14.8810 -55.4610 137° Southeast  Level FlightAware Approximate
05:53AM -14.9766 -55.3672 137° Southeast  Level FlightAware Approximate
05:54AM -15.0722 -55.2733 137° Southeast  Level FlightAware Approximate
05:55AM -15.1677 -55.1794 136° Southeast  Level FlightAware Approximate
05:56AM -15.2632 -55.0854 136° Southeast  Level FlightAware Approximate
05:57AM -15.3587 -54.9912 136° Southeast  Level FlightAware Approximate
05:58AM -15.4541 -54.8970 136° Southeast  Level FlightAware Approximate
05:59AM -15.5495 -54.8027 136° Southeast  Level FlightAware Approximate
06:00AM -15.6448 -54.7084 136° Southeast  Level FlightAware Approximate
06:01AM -15.7401 -54.6139 136° Southeast  Level FlightAware Approximate
06:02AM -15.8353 -54.5193 136° Southeast  Level FlightAware Approximate
06:03AM -15.9305 -54.4247 136° Southeast  Level FlightAware Approximate
06:04AM -16.0257 -54.3299 136° Southeast  Level FlightAware Approximate
06:05AM -16.1208 -54.2351 136° Southeast  Level FlightAware Approximate
06:06AM -16.2159 -54.1402 136° Southeast  Level FlightAware Approximate
06:07AM -16.3110 -54.0452 136° Southeast  Level FlightAware Approximate
06:08AM -16.4060 -53.9501 136° Southeast  Level FlightAware Approximate
06:09AM -16.5009 -53.8549 136° Southeast  Level FlightAware Approximate
06:10AM -16.5958 -53.7596 136° Southeast  Level FlightAware Approximate
06:11AM -16.6907 -53.6642 136° Southeast  Level FlightAware Approximate
06:12AM -16.7855 -53.5687 136° Southeast  Level FlightAware Approximate
06:13AM -16.8803 -53.4732 136° Southeast  Level FlightAware Approximate
06:14AM -16.9750 -53.3775 136° Southeast  Level FlightAware Approximate
06:15AM -17.0697 -53.2817 136° Southeast  Level FlightAware Approximate
06:16AM -17.1644 -53.1859 136° Southeast  Level FlightAware Approximate
06:17AM -17.2590 -53.0899 136° Southeast  Level FlightAware Approximate
06:18AM -17.3535 -52.9939 136° Southeast  Level FlightAware Approximate
06:19AM -17.4481 -52.8977 136° Southeast  Level FlightAware Approximate
06:20AM -17.5425 -52.8014 136° Southeast  Level FlightAware Approximate
06:21AM -17.6369 -52.7051 136° Southeast  Level FlightAware Approximate
06:22AM -17.7313 -52.6086 136° Southeast  Level FlightAware Approximate
06:23AM -17.8256 -52.5121 136° Southeast  Level FlightAware Approximate
06:24AM -17.9199 -52.4154 136° Southeast  Level FlightAware Approximate
06:25AM -18.0141 -52.3186 136° Southeast  Level FlightAware Approximate
06:26AM -18.1083 -52.2217 136° Southeast  Level FlightAware Approximate
06:27AM -18.2024 -52.1248 136° Southeast  Level FlightAware Approximate
06:28AM -18.2965 -52.0277 136° Southeast  Level FlightAware Approximate
06:29AM -18.3906 -51.9305 136° Southeast  Level FlightAware Approximate
06:30AM -18.4846 -51.8332 136° Southeast  Level FlightAware Approximate
06:31AM -18.5785 -51.7358 136° Southeast  Level FlightAware Approximate
06:32AM -18.6724 -51.6383 135° Southeast  Level FlightAware Approximate
06:32AM -19.0230 -50.6710 135° Southeast 504 580 39,000  Level FlightAware
06:33AM -18.7662 -51.5407 135° Southeast  Level FlightAware Approximate
06:33AM -19.0940 -50.5930 134° Southeast 504 580 39,000  Level FlightAware
06:33AM -19.1560 -50.5260 134° Southeast 502 578 39,000  Level FlightAware
06:34AM -19.2280 -50.4470 134° Southeast 502 578 39,000  Level FlightAware
06:35AM -19.2960 -50.3730 134° Southeast 502 578 39,000  Level FlightAware
06:36AM -19.3670 -50.2940 134° Southeast 504 580 39,000  Level FlightAware
06:36AM -19.4310 -50.2240 134° Southeast 505 581 39,000  Level FlightAware
06:37AM -19.4990 -50.1490 134° Southeast 505 581 39,000  Level FlightAware
06:38AM -19.5710 -50.0700 134° Southeast 505 581 39,000  Level FlightAware
06:38AM -19.6380 -49.9950 133° Southeast 504 580 39,000  Level FlightAware
06:39AM -19.7080 -49.9200 135° Southeast 504 580 39,000  Level FlightAware
06:40AM -19.7720 -49.8500 134° Southeast 505 581 39,000  Level FlightAware
06:40AM -19.8430 -49.7720 134° Southeast 507 583 39,000  Level FlightAware
06:41AM -19.9090 -49.7000 134° Southeast 507 583 39,000  Level FlightAware
06:42AM -19.9810 -49.6210 134° Southeast 507 583 39,000  Level FlightAware
06:43AM -20.0500 -49.5460 134° Southeast 507 583 39,000  Level FlightAware
06:43AM -20.1110 -49.4780 134° Southeast 507 583 39,000  Level FlightAware
06:44AM -20.1870 -49.3950 134° Southeast 509 586 39,000  Level FlightAware
06:45AM -20.2530 -49.3220 134° Southeast 509 586 39,000  Level FlightAware
06:45AM -20.3240 -49.2440 134° Southeast 512 589 39,000  Level FlightAware
06:46AM -20.3920 -49.1690 134° Southeast 512 589 39,000  Level FlightAware
06:47AM -20.4640 -49.0890 134° Southeast 513 590 39,000  Level FlightAware
06:47AM -20.5330 -49.0120 134° Southeast 515 593 39,000  Level FlightAware
06:48AM -20.5990 -48.9390 134° Southeast 516 594 39,000  Level FlightAware
06:49AM -20.6640 -48.8660 134° Southeast 517 595 39,000  Level FlightAware
06:50AM -20.7380 -48.7840 134° Southeast 517 595 39,000  Level FlightAware
06:50AM -20.8080 -48.7060 134° Southeast 517 595 39,000  Level FlightAware
06:51AM -20.8820 -48.6230 134° Southeast 517 595 39,000  Level FlightAware
06:52AM -20.9510 -48.5450 133° Southeast 518 596 39,000  Level FlightAware
06:52AM -21.0170 -48.4710 134° Southeast 519 597 39,000  Level FlightAware
06:53AM -21.0860 -48.3930 133° Southeast 518 596 39,000  Level FlightAware
06:54AM -21.1550 -48.3150 133° Southeast 517 595 39,000  Level FlightAware
06:54AM -21.2270 -48.2330 133° Southeast 516 594 39,000  Level FlightAware
06:55AM -21.2940 -48.1580 134° Southeast 515 593 39,000  Level FlightAware
06:56AM -21.3630 -48.0870 136° Southeast 508 585 39,000  Level FlightAware
06:57AM -21.4440 -48.0200 142° Southeast 502 578 39,000  Level FlightAware
06:57AM -21.5220 -47.9580 144° Southeast 501 577 39,000  Level FlightAware
06:58AM -21.5960 -47.8990 143° Southeast 500 575 39,000  Level FlightAware
06:59AM -21.6780 -47.8330 143° Southeast 500 575 39,000  Level FlightAware
06:59AM -21.7550 -47.7690 142° Southeast 498 573 39,000 -480 Level FlightAware
07:00AM -21.8240 -47.7130 143° Southeast 492 566 38,400 -1,380 Descending FlightAware
07:01AM -21.9060 -47.6460 143° Southeast 484 557 37,100 -1,560 Descending FlightAware
07:01AM -21.9770 -47.5890 143° Southeast 481 554 36,200 -2,340 Descending FlightAware
07:02AM -22.0580 -47.5230 143° Southeast 490 564 33,900 -3,000 Descending FlightAware
07:03AM -22.1290 -47.4650 143° Southeast 479 551 32,000 -3,600 Descending FlightAware
07:04AM -22.2020 -47.4050 143° Southeast 482 555 29,000 -3,720 Descending FlightAware
07:04AM -22.2790 -47.3420 143° Southeast 461 531 26,700 -2,880 Descending FlightAware
07:05AM -22.3470 -47.2860 143° Southeast 448 516 25,000 -2,580 Descending FlightAware
07:06AM -22.4150 -47.2310 143° Southeast 434 499 23,200 -2,400 Descending FlightAware
07:06AM -22.4820 -47.1750 142° Southeast 428 493 21,600 -2,160 Descending FlightAware
07:07AM -22.5500 -47.1200 143° Southeast 428 493 20,100 -1,500 Descending FlightAware
07:08AM -22.6240 -47.0770 152° Southeast 416 479 19,500 -1,500 Descending FlightAware
07:08AM -22.6960 -47.0470 159° South 408 470 18,100 -1,800 Descending FlightAware
07:09AM -22.7390 -47.0290 159° South 405 466 17,200 -2,100 Descending FlightAware
07:10AM -22.8440 -46.9860 159° South 393 452 15,200 -2,040 Descending FlightAware
07:10AM -22.9060 -46.9600 159° South 375 432 14,400 -1,440 Descending FlightAware
07:11AM -22.9480 -46.9420 158° South 374 430 13,500 -1,860 Descending FlightAware
07:12AM -23.0220 -46.9110 159° South 367 422 12,000 -2,220 Descending FlightAware
07:13AM -23.1000 -46.8780 159° South 365 420 10,200 -1,680 Descending FlightAware
07:13AM -23.1390 -46.8620 159° South 326 375 10,000 -360 Descending FlightAware
07:13AM -23.1540 -46.8550 157° South 300 345 10,000 -1,020 Level FlightAware
07:14AM -23.1820 -46.8430 158° South 287 330 9,400 -2,040 Descending FlightAware
07:14AM -23.2210 -46.8270 159° South 273 314 8,200 -1,860 Descending FlightAware
07:14AM -23.2340 -46.8210 157° South 257 296 8,100 -540 Descending FlightAware
07:15AM -23.2750 -46.8040 159° South 222 255 7,800 -540 Descending FlightAware
07:15AM -23.3000 -46.7940 160° South 206 237 7,600 -540 Descending FlightAware
07:16AM -23.3270 -46.7820 158° South 200 230 7,300 -600 Descending FlightAware
07:16AM -23.3450 -46.7740 158° South 200 230 7,100 -600 Descending FlightAware
07:17AM -23.3720 -46.7620 158° South 203 234 6,800 -660 Descending FlightAware
07:17AM -23.3840 -46.7510 140° Southeast 207 238 6,600 -960 Descending FlightAware
07:17AM -23.4050 -46.7320 140° Southeast 207 238 6,100 -1,020 Descending FlightAware
07:18AM -23.4250 -46.7130 139° Southeast 202 232 5,700 -900 Descending FlightAware
07:18AM -23.4440 -46.6950 139° Southeast 197 227 5,300 -900 Descending FlightAware
07:19AM -23.4520 -46.6820 124° Southeast 195 224 5,100 -720 Descending FlightAware
07:19AM -23.4620 -46.6590 115° Southeast 194 223 4,800 -720 Descending FlightAware
07:20AM -23.4720 -46.6360 115° Southeast 193 222 4,500 -660 Descending FlightAware
07:20AM -23.4740 -46.6240 100° East 190 219 4,400 -420 Descending FlightAware
07:20AM -23.4680 -46.5960 77° East 187 215 4,200 -780 Descending FlightAware
07:21AM -23.4610 -46.5710 73° East 178 205 3,700 -1,020 Descending FlightAware
07:21AM -23.4550 -46.5480 74° East 154 177 3,300 -780 Descending FlightAware
07:22AM -23.4500 -46.5300 73° East 144 166 3,000 -780 Descending FlightAware
07:22AM -23.4450 -46.5100 75° East 142 163 2,600 -780 Descending FlightAware
07:23AM -23.4400 -46.4910 74° East 145 167 2,300 -720 Descending FlightAware
07:23AM -23.4350 -46.4740 72° East 100 115 -4,800 Descending FlightAware
07:24AM -23.4320 -46.4620 75° East 72 83  Level FlightAware